Time;durP1;ratioP1;P1;durP2;ratioP2;P2;SDS_P1;SDS_P2;PMS_P1;PMS_P2;Temp;Humidity;BMP_temperature;BMP_pressure;BME280_temperature;BME280_humidity;BME280_pressure;Samples;Min_cycle;Max_cycle;Signal;HPM_P1;HPM_P2
2022/08/18 04:05:46;;;;;;;8.73;6.63;;;18.30;99.90;;;;;;4977349;28;20509;-66
2022/08/18 04:08:12;;;;;;;6.90;6.13;;;18.30;99.90;;;;;;4975247;28;20859;-66
2022/08/18 04:10:38;;;;;;;8.70;5.93;;;18.30;99.90;;;;;;4975168;28;20462;-67
2022/08/18 04:13:06;;;;;;;7.13;6.43;;;18.30;99.90;;;;;;4975194;28;20405;-67
2022/08/18 04:15:32;;;;;;;7.13;6.43;;;18.30;99.90;;;;;;4975559;28;20202;-67
2022/08/18 04:17:59;;;;;;;6.93;5.43;;;18.30;99.90;;;;;;4975346;28;20416;-66
2022/08/18 04:20:24;;;;;;;6.30;4.87;;;18.20;99.90;;;;;;4975331;28;20178;-67
2022/08/18 04:22:50;;;;;;;7.90;6.20;;;18.20;99.90;;;;;;4974900;28;20776;-66
2022/08/18 04:25:16;;;;;;;6.27;5.50;;;18.20;99.90;;;;;;4975330;28;20186;-66
2022/08/18 04:27:42;;;;;;;7.87;5.73;;;18.20;99.90;;;;;;4963839;28;20182;-66
2022/08/18 04:30:10;;;;;;;7.53;5.17;;;18.20;99.90;;;;;;4958326;28;20513;-67
2022/08/18 04:32:35;;;;;;;5.43;4.80;;;18.10;99.90;;;;;;4974905;28;20409;-67
2022/08/18 04:35:01;;;;;;;6.30;5.70;;;18.10;99.90;;;;;;4974249;28;20475;-67
2022/08/18 04:37:29;;;;;;;6.13;5.53;;;18.10;99.90;;;;;;4975184;28;20417;-67
2022/08/18 04:39:54;;;;;;;6.73;5.50;;;18.10;99.90;;;;;;4975021;28;20191;-67
2022/08/18 04:42:20;;;;;;;6.70;5.90;;;18.10;99.90;;;;;;4974589;28;20410;-67
2022/08/18 04:44:45;;;;;;;6.60;5.50;;;18.20;99.90;;;;;;4974572;28;20205;-67
2022/08/18 04:47:12;;;;;;;5.80;5.20;;;18.20;99.90;;;;;;4975007;28;20173;-67
2022/08/18 04:49:37;;;;;;;7.07;6.03;;;18.20;99.90;;;;;;4974945;28;20174;-67
2022/08/18 04:54:49;;;;;;;7.40;6.00;;;18.30;99.90;;;;;;4975048;28;20520;-68
2022/08/18 04:57:17;;;;;;;5.87;5.27;;;18.30;99.90;;;;;;4974937;28;20417;-68
2022/08/18 04:59:46;;;;;;;6.67;5.97;;;18.30;99.90;;;;;;4974526;28;20178;-68
2022/08/18 05:02:13;;;;;;;9.60;6.63;;;18.30;99.90;;;;;;4974298;28;20422;-68
2022/08/18 05:04:40;;;;;;;8.90;6.57;;;18.50;99.90;;;;;;4974268;28;20453;-68
2022/08/18 05:07:09;;;;;;;8.97;6.27;;;18.60;99.90;;;;;;4974965;28;20426;-68
2022/08/18 05:09:36;;;;;;;8.33;6.40;;;18.90;99.90;;;;;;4974723;28;20419;-68
2022/08/18 05:12:03;;;;;;;7.07;6.37;;;19.10;99.90;;;;;;4974858;28;20511;-69
2022/08/18 05:14:30;;;;;;;6.47;5.80;;;19.40;99.90;;;;;;4973938;28;20803;-68
2022/08/18 05:16:59;;;;;;;6.00;5.10;;;19.60;99.90;;;;;;4974649;28;20414;-69
2022/08/18 05:19:26;;;;;;;6.73;6.07;;;19.60;99.90;;;;;;4974648;28;20441;-68
2022/08/18 05:21:53;;;;;;;8.60;6.87;;;19.70;99.90;;;;;;4974591;28;20387;-67
2022/08/18 05:24:20;;;;;;;6.30;5.70;;;19.80;99.90;;;;;;4974091;28;20887;-68
2022/08/18 05:26:46;;;;;;;6.13;5.40;;;19.90;99.90;;;;;;4974532;28;20412;-66
2022/08/18 05:29:12;;;;;;;7.03;6.33;;;20.00;99.90;;;;;;4974233;28;20438;-66
2022/08/18 05:31:38;;;;;;;5.77;5.17;;;20.10;99.90;;;;;;4974629;28;20403;-67
2022/08/18 05:34:04;;;;;;;7.70;6.53;;;20.20;99.90;;;;;;4974117;28;20199;-67
2022/08/18 05:36:45;;;;;;;6.60;5.20;;;20.20;99.90;;;;;;4974555;28;20200;-67
2022/08/18 05:39:16;;;;;;;8.63;5.73;;;20.20;99.90;;;;;;4974652;28;20411;-67
2022/08/18 05:41:52;;;;;;;6.57;4.97;;;20.20;99.90;;;;;;4974173;28;20416;-67
2022/08/18 05:44:26;;;;;;;11.63;6.00;;;20.30;99.90;;;;;;4973802;28;20989;-67
2022/08/18 05:47:16;;;;;;;7.63;5.40;;;20.40;99.90;;;;;;4974570;28;20527;-67
2022/08/18 05:49:44;;;;;;;7.77;6.33;;;20.50;99.90;;;;;;4974337;28;20901;-68
2022/08/18 05:52:37;;;;;;;6.67;6.00;;;20.70;99.90;;;;;;4974600;28;20750;-68
2022/08/18 05:57:57;;;;;;;6.10;5.40;;;21.00;99.90;;;;;;4974389;28;20924;-68
2022/08/18 06:00:24;;;;;;;4.93;4.53;;;21.10;99.90;;;;;;4974459;28;20404;-67
2022/08/18 06:03:03;;;;;;;6.37;5.20;;;21.10;99.90;;;;;;4973889;28;20468;-68
2022/08/18 06:05:36;;;;;;;9.33;6.30;;;21.30;99.90;;;;;;4974144;28;20889;-68
2022/08/18 06:08:11;;;;;;;6.43;5.60;;;21.50;99.90;;;;;;4974160;28;20427;-68
2022/08/18 06:10:40;;;;;;;7.63;6.53;;;21.60;99.90;;;;;;4973833;28;20435;-68
2022/08/18 06:13:09;;;;;;;5.97;5.47;;;21.70;99.90;;;;;;4973656;28;20379;-68
2022/08/18 06:16:08;;;;;;;5.80;5.13;;;21.70;99.90;;;;;;4973160;28;20491;-68
2022/08/18 06:18:55;;;;;;;5.40;4.90;;;21.60;99.90;;;;;;4977662;28;20406;-67
2022/08/18 06:21:34;;;;;;;4.70;4.30;;;21.70;99.90;;;;;;4977654;28;20492;-68
2022/08/18 06:24:32;;;;;;;6.20;5.40;;;21.60;99.90;;;;;;4976996;28;20410;-69
2022/08/18 06:27:07;;;;;;;5.60;5.00;;;21.40;99.90;;;;;;4958264;29;20778;-68
2022/08/18 06:30:03;;;;;;;6.20;5.00;;;21.30;99.90;;;;;;4958157;28;20386;-68
2022/08/18 06:32:51;;;;;;;5.90;5.20;;;21.40;99.90;;;;;;4958159;28;20428;-68
2022/08/18 06:35:35;;;;;;;6.27;5.00;;;21.50;99.90;;;;;;4958044;28;20473;-68
2022/08/18 06:38:37;;;;;;;5.90;5.30;;;21.60;99.90;;;;;;4959777;28;20375;-68
2022/08/18 06:41:06;;;;;;;5.20;4.80;;;21.80;99.90;;;;;;4977233;28;20731;-68
2022/08/18 06:43:35;;;;;;;6.37;5.77;;;21.90;99.90;;;;;;4975230;28;20987;-69
2022/08/18 06:46:06;;;;;;;6.83;5.43;;;22.00;99.90;;;;;;4976022;28;20475;-68
2022/08/18 06:48:53;;;;;;;5.90;4.90;;;22.10;99.90;;;;;;4977269;28;20762;-67
2022/08/18 06:51:21;;;;;;;5.90;5.40;;;22.10;99.90;;;;;;4977160;28;20407;-68
2022/08/18 06:53:59;;;;;;;5.07;4.67;;;22.20;99.90;;;;;;4976224;28;20783;-69
2022/08/18 06:56:30;;;;;;;5.70;5.20;;;22.30;99.90;;;;;;4976650;28;20462;-69
2022/08/18 06:59:15;;;;;;;6.23;5.63;;;22.40;99.90;;;;;;4976943;28;20423;-68
2022/08/18 07:01:42;;;;;;;6.17;5.50;;;22.50;99.90;;;;;;4976883;28;20415;-68
2022/08/18 07:04:08;;;;;;;4.90;4.50;;;22.60;99.90;;;;;;4976353;28;20405;-69
2022/08/18 07:06:33;;;;;;;7.30;5.37;;;22.70;99.90;;;;;;4976591;28;20932;-68
2022/08/18 07:09:21;;;;;;;5.97;5.37;;;22.70;99.90;;;;;;4976498;28;20192;-70
2022/08/18 07:12:04;;;;;;;6.33;5.77;;;22.60;99.90;;;;;;4976665;28;20534;-68
2022/08/18 07:14:40;;;;;;;6.47;5.47;;;22.60;99.90;;;;;;4976078;28;20469;-69
2022/08/18 07:17:13;;;;;;;5.93;5.07;;;22.50;99.90;;;;;;4976456;28;20527;-70
2022/08/18 07:19:39;;;;;;;6.40;5.70;;;22.40;99.90;;;;;;4976711;28;20415;-70
2022/08/18 07:22:16;;;;;;;9.23;4.97;;;22.40;99.90;;;;;;4975683;28;20470;-71
2022/08/18 07:24:45;;;;;;;5.93;5.33;;;22.50;99.90;;;;;;4976573;28;20494;-70
2022/08/18 07:27:16;;;;;;;6.20;5.60;;;22.60;99.90;;;;;;4975199;28;20480;-70
2022/08/18 07:30:06;;;;;;;4.97;4.57;;;22.60;99.90;;;;;;4976141;28;20393;-71
2022/08/18 07:32:37;;;;;;;6.33;5.70;;;22.80;99.90;;;;;;4975509;28;20487;-69
2022/08/18 07:35:07;;;;;;;6.20;5.60;;;22.80;99.90;;;;;;4976147;28;20471;-69
2022/08/18 07:37:42;;;;;;;5.77;5.20;;;22.80;99.90;;;;;;4976165;28;20404;-72
2022/08/18 07:40:18;;;;;;;6.30;5.70;;;22.90;99.90;;;;;;4976006;28;20392;-69
2022/08/18 07:42:53;;;;;;;5.73;4.67;;;22.90;99.90;;;;;;4975958;28;20744;-70
2022/08/18 07:45:25;;;;;;;5.50;4.57;;;22.90;99.90;;;;;;4975681;28;20450;-70
2022/08/18 07:48:14;;;;;;;6.00;5.10;;;22.80;99.90;;;;;;4975883;28;20903;-70
2022/08/18 07:50:44;;;;;;;5.80;5.20;;;22.70;99.90;;;;;;4974582;28;20900;-70
2022/08/18 07:53:38;;;;;;;6.13;5.53;;;22.50;99.90;;;;;;4975256;28;20788;-71
2022/08/18 07:56:31;;;;;;;6.33;4.83;;;22.30;99.90;;;;;;4962285;28;20562;-70
2022/08/18 07:59:25;;;;;;;4.97;4.47;;;22.30;99.90;;;;;;4954136;28;20523;-69
2022/08/18 08:02:29;;;;;;;6.53;5.03;;;22.10;99.90;;;;;;4975393;28;20765;-69
2022/08/18 08:05:23;;;;;;;12.67;5.30;;;22.10;99.90;;;;;;4975378;28;21012;-70
2022/08/18 08:08:05;;;;;;;5.33;4.87;;;22.00;99.90;;;;;;4948401;28;20501;-69
2022/08/18 08:10:52;;;;;;;5.33;4.83;;;22.00;99.90;;;;;;4974689;28;20394;-69
2022/08/18 08:13:32;;;;;;;6.00;5.50;;;22.00;99.90;;;;;;4955770;28;20399;-70
2022/08/18 08:16:02;;;;;;;5.17;4.67;;;22.00;99.90;;;;;;4972316;28;20470;-68
2022/08/18 08:18:34;;;;;;;5.20;4.57;;;21.90;99.90;;;;;;4973933;28;20430;-70
2022/08/18 08:21:09;;;;;;;6.40;5.60;;;21.90;99.90;;;;;;4974293;28;20930;-70
2022/08/18 08:23:36;;;;;;;5.57;5.00;;;21.70;99.90;;;;;;4974414;28;20431;-75
2022/08/18 08:26:30;;;;;;;8.60;5.80;;;21.70;99.90;;;;;;4974612;28;20913;-74
2022/08/18 08:29:26;;;;;;;5.83;5.30;;;21.60;99.90;;;;;;4974258;28;20412;-71
2022/08/18 08:32:23;;;;;;;6.10;5.50;;;21.60;99.90;;;;;;4975258;28;20383;-70
2022/08/18 08:35:06;;;;;;;6.70;5.40;;;21.70;99.90;;;;;;4965737;28;21081;-71
2022/08/18 08:37:42;;;;;;;5.00;4.50;;;21.60;99.90;;;;;;4974356;28;20459;-71
2022/08/18 08:40:47;;;;;;;4.70;4.30;;;21.60;99.90;;;;;;4974096;28;20505;-70
2022/08/18 08:43:19;;;;;;;7.13;5.00;;;21.70;99.90;;;;;;4943603;28;20770;-71
2022/08/18 08:45:56;;;;;;;5.40;5.00;;;21.70;99.90;;;;;;4962955;28;20406;-72
2022/08/18 08:48:23;;;;;;;5.60;4.80;;;21.70;99.90;;;;;;4973488;28;20405;-70
2022/08/18 08:50:53;;;;;;;4.70;4.23;;;21.70;99.90;;;;;;4974402;28;20518;-70
2022/08/18 08:53:33;;;;;;;4.60;4.20;;;21.80;99.90;;;;;;4959694;28;20437;-70
2022/08/18 08:56:05;;;;;;;5.33;4.40;;;21.90;99.90;;;;;;4969963;28;20818;-70
2022/08/18 08:58:53;;;;;;;7.10;4.40;;;22.00;99.90;;;;;;4974732;28;20423;-71
2022/08/18 09:01:33;;;;;;;5.83;4.73;;;22.10;99.90;;;;;;4975031;28;20534;-70
2022/08/18 09:04:22;;;;;;;5.43;4.63;;;22.20;99.90;;;;;;4969752;28;20438;-70
2022/08/18 09:07:19;;;;;;;5.57;5.03;;;22.40;99.90;;;;;;4973582;28;20428;-70
2022/08/18 09:10:20;;;;;;;6.20;5.60;;;22.60;99.90;;;;;;4966612;28;20420;-70
2022/08/18 09:13:16;;;;;;;5.83;5.30;;;23.00;99.90;;;;;;4974529;28;20773;-70
2022/08/18 09:15:52;;;;;;;5.43;4.83;;;23.30;99.90;;;;;;4973186;28;20503;-69
2022/08/18 09:18:47;;;;;;;4.43;4.10;;;23.60;99.90;;;;;;4973365;28;20903;-71
2022/08/18 09:21:37;;;;;;;6.10;4.60;;;23.80;99.90;;;;;;4930627;28;20428;-71
2022/08/18 09:24:26;;;;;;;5.70;5.07;;;24.00;99.90;;;;;;4969925;28;20430;-70
2022/08/18 09:27:12;;;;;;;5.10;4.70;;;24.20;99.90;;;;;;4955585;28;20415;-72
2022/08/18 09:29:37;;;;;;;5.53;5.03;;;24.60;99.90;;;;;;4955575;28;20379;-70
2022/08/18 09:32:24;;;;;;;6.50;4.77;;;25.30;99.90;;;;;;4955189;28;20467;-71
2022/08/18 09:35:09;;;;;;;5.10;4.60;;;26.10;99.90;;;;;;4957828;28;20226;-71
2022/08/18 09:43:38;;;;;;;5.40;4.90;;;27.70;99.90;;;;;;4973955;28;20401;-71
2022/08/18 09:46:06;;;;;;;4.83;4.43;;;28.30;99.60;;;;;;4974491;28;20466;-69
2022/08/18 09:48:34;;;;;;;5.63;5.13;;;28.90;98.70;;;;;;4974476;28;20390;-69
2022/08/18 09:51:14;;;;;;;5.00;4.60;;;29.30;96.10;;;;;;4975293;28;20944;-70
2022/08/18 09:54:06;;;;;;;5.40;4.90;;;29.70;96.20;;;;;;4973645;28;20447;-69
2022/08/18 09:56:50;;;;;;;5.43;4.93;;;30.00;94.80;;;;;;4977808;28;20473;-70
2022/08/18 09:59:31;;;;;;;5.13;4.73;;;;;;;;;;4975088;28;20972;-69
2022/08/18 10:01:58;;;;;;;4.80;4.40;;;;;;;;;;4958649;29;20423;-69
2022/08/18 10:04:30;;;;;;;6.03;5.53;;;30.60;95.60;;;;;;4966644;28;20768;-70
2022/08/18 10:07:34;;;;;;;4.97;4.57;;;31.40;92.00;;;;;;4978368;28;20423;-69
2022/08/18 10:10:00;;;;;;;8.87;5.70;;;;;;;;;;4973175;28;20416;-70
2022/08/18 10:12:29;;;;;;;6.00;5.43;;;;;;;;;;4963634;28;20446;-69
2022/08/18 10:15:07;;;;;;;6.00;5.60;;;31.50;92.00;;;;;;4975570;28;20479;-69
2022/08/18 10:17:51;;;;;;;6.73;5.43;;;32.00;90.90;;;;;;4958594;28;20414;-70
2022/08/18 10:20:38;;;;;;;6.53;6.00;;;32.50;90.00;;;;;;4973601;28;20429;-70
2022/08/18 10:23:06;;;;;;;5.50;5.10;;;32.70;86.90;;;;;;4976465;28;20723;-71
2022/08/18 10:25:41;;;;;;;5.40;5.00;;;32.90;87.90;;;;;;4977404;28;20481;-70
2022/08/18 10:28:10;;;;;;;5.53;5.13;;;33.30;86.80;;;;;;4977408;28;20434;-70
2022/08/18 10:30:36;;;;;;;8.77;6.50;;;33.20;84.70;;;;;;4977219;28;20602;-68
2022/08/18 10:33:08;;;;;;;5.30;4.90;;;33.10;84.80;;;;;;4963864;28;20974;-72
2022/08/18 10:35:36;;;;;;;6.03;5.53;;;33.10;85.70;;;;;;4967554;28;20558;-70
2022/08/18 10:38:21;;;;;;;5.30;4.87;;;32.80;85.60;;;;;;4976061;28;20944;-69
2022/08/18 10:41:05;;;;;;;5.90;5.40;;;32.90;83.90;;;;;;4976159;28;20626;-68
2022/08/18 10:43:38;;;;;;;5.70;5.20;;;32.90;86.20;;;;;;4976216;28;20454;-69
2022/08/18 10:46:13;;;;;;;6.63;6.10;;;32.90;84.10;;;;;;4977212;28;20407;-69
2022/08/18 10:48:39;;;;;;;5.83;5.40;;;32.80;81.90;;;;;;4977290;28;20503;-68
2022/08/18 10:51:14;;;;;;;5.80;5.40;;;32.90;82.70;;;;;;4976954;28;20494;-68
2022/08/18 10:53:44;;;;;;;7.10;6.50;;;33.00;82.30;;;;;;4976375;28;20343;-68
2022/08/18 10:56:27;;;;;;;6.03;5.60;;;32.50;80.40;;;;;;4975428;28;20459;-68
2022/08/18 10:59:04;;;;;;;6.93;6.33;;;32.10;82.90;;;;;;4977115;28;20514;-70
2022/08/18 11:01:45;;;;;;;5.63;5.00;;;31.90;83.30;;;;;;4976681;28;20423;-68
2022/08/18 11:04:28;;;;;;;6.80;6.30;;;32.00;84.90;;;;;;4972984;28;20563;-66
2022/08/18 11:07:04;;;;;;;6.87;6.27;;;31.90;85.40;;;;;;4976360;28;20497;-71
2022/08/18 11:09:30;;;;;;;7.10;6.50;;;32.20;85.00;;;;;;4976702;28;20381;-70
2022/08/18 11:11:59;;;;;;;6.20;5.70;;;32.00;84.30;;;;;;4976216;28;20394;-70
2022/08/18 11:14:40;;;;;;;7.47;6.63;;;31.80;82.80;;;;;;4975857;28;20204;-70
2022/08/18 11:17:37;;;;;;;7.83;7.03;;;31.50;83.90;;;;;;4974731;28;20918;-70
2022/08/18 11:20:08;;;;;;;6.87;6.27;;;30.70;85.80;;;;;;4948692;28;20481;-67
2022/08/18 11:22:35;;;;;;;7.13;6.63;;;30.10;88.30;;;;;;4975732;28;20393;-68
2022/08/18 11:25:04;;;;;;;6.97;6.37;;;29.90;89.60;;;;;;4975835;28;20475;-65
2022/08/18 11:27:34;;;;;;;7.10;6.40;;;29.70;90.10;;;;;;4964612;28;20474;-68
2022/08/18 11:30:01;;;;;;;7.50;6.90;;;29.60;90.60;;;;;;4970301;28;20427;-67
2022/08/18 11:32:36;;;;;;;7.70;7.00;;;29.40;90.10;;;;;;4975862;28;20397;-66
2022/08/18 11:35:15;;;;;;;6.80;6.10;;;29.40;89.90;;;;;;4976001;28;20517;-74
2022/08/18 11:37:40;;;;;;;6.80;6.20;;;29.20;90.50;;;;;;4975094;28;20406;-75
2022/08/18 11:40:30;;;;;;;8.07;6.57;;;29.00;90.60;;;;;;4975660;28;20520;-76
2022/08/18 11:43:08;;;;;;;6.20;5.70;;;28.90;90.60;;;;;;4963446;28;20192;-75
2022/08/18 11:45:44;;;;;;;7.47;6.77;;;28.80;91.30;;;;;;4975941;28;20422;-73
2022/08/18 11:48:28;;;;;;;6.87;6.37;;;29.00;91.50;;;;;;4975014;28;20517;-72
2022/08/18 11:51:00;;;;;;;6.80;6.20;;;28.80;91.20;;;;;;4975852;28;20820;-67
2022/08/18 11:53:32;;;;;;;7.40;6.30;;;28.80;92.20;;;;;;4975206;28;20455;-67
2022/08/18 11:56:24;;;;;;;7.30;5.80;;;28.70;91.00;;;;;;4975623;28;20473;-69
2022/08/18 11:59:00;;;;;;;9.40;5.90;;;28.60;91.00;;;;;;4971690;28;20481;-67
2022/08/18 12:01:36;;;;;;;7.07;6.47;;;28.50;91.20;;;;;;4972237;28;20410;-66
2022/08/18 12:04:13;;;;;;;9.40;6.17;;;28.40;92.20;;;;;;4974478;28;20513;-67
2022/08/18 12:07:04;;;;;;;9.07;5.60;;;28.40;92.70;;;;;;4975041;28;20413;-70
2022/08/18 12:10:07;;;;;;;6.87;6.13;;;28.40;92.30;;;;;;4958655;28;20459;-67
2022/08/18 12:12:33;;;;;;;6.20;5.67;;;28.40;92.40;;;;;;4955986;28;20408;-67
2022/08/18 12:15:05;;;;;;;6.50;5.90;;;28.40;92.10;;;;;;4956817;28;20477;-68
2022/08/18 12:17:32;;;;;;;7.20;6.60;;;28.30;92.60;;;;;;4972167;28;20944;-68
2022/08/18 12:19:58;;;;;;;7.50;6.83;;;28.30;92.80;;;;;;4975342;28;20382;-69
2022/08/18 12:22:31;;;;;;;5.97;5.33;;;28.20;92.10;;;;;;4974651;28;20408;-69
2022/08/18 12:24:58;;;;;;;7.03;6.43;;;28.10;92.10;;;;;;4975246;28;20532;-67
2022/08/18 12:27:25;;;;;;;6.30;5.80;;;28.10;91.80;;;;;;4974989;28;20434;-67
2022/08/18 12:29:54;;;;;;;10.93;5.93;;;28.20;92.00;;;;;;4974855;28;20421;-69
2022/08/18 12:32:21;;;;;;;6.90;6.20;;;28.00;92.20;;;;;;4973037;28;20452;-69
2022/08/18 12:34:48;;;;;;;7.00;6.37;;;28.00;92.10;;;;;;4974843;28;20803;-72
2022/08/18 12:37:23;;;;;;;6.70;6.10;;;28.10;91.70;;;;;;4974448;28;20386;-71
2022/08/18 12:39:49;;;;;;;6.10;5.60;;;28.10;91.40;;;;;;4975186;28;20378;-72
2022/08/18 12:42:15;;;;;;;6.40;5.90;;;28.10;91.80;;;;;;4973659;28;20414;-68
2022/08/18 12:44:41;;;;;;;6.07;5.57;;;28.00;91.80;;;;;;4973331;28;20418;-69
2022/08/18 12:47:14;;;;;;;7.23;6.57;;;28.00;92.80;;;;;;4974704;28;20525;-69
2022/08/18 12:49:40;;;;;;;6.40;5.90;;;27.90;92.00;;;;;;4975020;28;20179;-70
2022/08/18 12:52:06;;;;;;;8.33;6.90;;;27.90;91.70;;;;;;4975054;28;20774;-68
2022/08/18 12:54:34;;;;;;;6.20;5.60;;;27.80;91.60;;;;;;4973908;28;20478;-66
2022/08/18 12:57:01;;;;;;;6.40;5.80;;;27.80;91.60;;;;;;4974309;28;20419;-67
2022/08/18 12:59:26;;;;;;;6.67;6.03;;;27.80;91.20;;;;;;4974504;28;20389;-68
2022/08/18 13:01:52;;;;;;;6.57;5.97;;;27.70;91.80;;;;;;4974477;28;20505;-67
2022/08/18 13:04:18;;;;;;;6.87;6.27;;;27.60;92.50;;;;;;4964110;28;20632;-67
2022/08/18 13:06:47;;;;;;;6.40;5.90;;;27.50;92.60;;;;;;4955259;28;20197;-67
2022/08/18 13:09:13;;;;;;;9.60;6.27;;;27.60;92.30;;;;;;4955023;28;20180;-67
2022/08/18 13:11:39;;;;;;;5.83;5.40;;;27.60;91.40;;;;;;4968019;28;20441;-67
2022/08/18 13:14:05;;;;;;;5.80;5.30;;;27.50;91.80;;;;;;4969270;28;20664;-68
2022/08/18 13:16:33;;;;;;;6.33;5.73;;;27.60;92.10;;;;;;4973623;28;20447;-68
2022/08/18 13:18:58;;;;;;;6.90;6.23;;;27.70;92.10;;;;;;4974265;28;20213;-67
2022/08/18 13:21:24;;;;;;;6.00;5.50;;;27.70;91.70;;;;;;4961205;28;20430;-68
2022/08/18 13:23:49;;;;;;;7.30;6.60;;;27.90;92.20;;;;;;4973959;28;20198;-67
2022/08/18 13:26:27;;;;;;;5.93;5.43;;;28.10;91.10;;;;;;4972958;28;20195;-68
2022/08/18 13:28:53;;;;;;;6.37;5.83;;;28.20;90.00;;;;;;4974627;28;20184;-67
2022/08/18 13:31:19;;;;;;;6.17;5.63;;;28.20;88.90;;;;;;4974042;28;20438;-67
2022/08/18 13:33:45;;;;;;;5.43;4.90;;;28.20;89.40;;;;;;4973378;28;20969;-67
2022/08/18 13:36:11;;;;;;;6.13;5.50;;;28.10;89.50;;;;;;4973869;28;20211;-67
2022/08/18 13:38:36;;;;;;;5.90;5.40;;;28.00;89.40;;;;;;4974082;28;20405;-67
2022/08/18 13:41:03;;;;;;;5.37;4.87;;;28.00;89.00;;;;;;4974082;28;20174;-67
2022/08/18 13:43:47;;;;;;;5.73;5.23;;;27.90;88.50;;;;;;4967116;28;20255;-67
2022/08/18 13:46:16;;;;;;;5.37;4.97;;;27.80;88.90;;;;;;4954687;29;21051;-67
2022/08/18 13:48:42;;;;;;;5.30;4.80;;;27.70;89.10;;;;;;4954925;28;20419;-67
2022/08/18 13:51:13;;;;;;;5.80;5.30;;;27.60;89.70;;;;;;4954840;28;20442;-67
2022/08/18 13:53:40;;;;;;;5.90;5.40;;;27.60;89.10;;;;;;4960340;28;20440;-67
2022/08/18 13:56:05;;;;;;;5.47;4.97;;;27.50;89.00;;;;;;4973580;28;20486;-69
2022/08/18 13:58:31;;;;;;;5.80;5.20;;;27.40;89.70;;;;;;4974009;28;20413;-67
2022/08/18 14:01:01;;;;;;;6.40;5.90;;;27.50;88.90;;;;;;4973905;28;20182;-67
2022/08/18 14:03:27;;;;;;;5.13;4.73;;;27.50;88.80;;;;;;4973337;28;20543;-67
2022/08/18 14:05:56;;;;;;;5.07;4.67;;;27.60;89.70;;;;;;4974044;28;20409;-67
2022/08/18 14:08:24;;;;;;;5.47;5.07;;;27.80;89.50;;;;;;4974180;28;20452;-67
2022/08/18 14:10:56;;;;;;;5.63;5.23;;;27.90;88.70;;;;;;4973595;28;20487;-67
2022/08/18 14:13:22;;;;;;;5.90;5.30;;;28.00;87.60;;;;;;4973062;28;20458;-67
2022/08/18 14:15:52;;;;;;;5.43;5.00;;;28.00;87.40;;;;;;4973513;28;20471;-67
2022/08/18 14:18:18;;;;;;;5.10;4.70;;;28.00;87.00;;;;;;4973640;28;20184;-68
2022/08/18 14:28:56;;;;;;;4.80;4.40;;;27.80;86.60;;;;;;4973666;28;20401;-67
2022/08/18 14:31:22;;;;;;;5.63;5.13;;;27.80;87.10;;;;;;4973419;28;20493;-67
2022/08/18 14:33:48;;;;;;;5.97;5.57;;;27.80;86.80;;;;;;4973489;28;20269;-67
2022/08/18 14:36:14;;;;;;;5.60;5.10;;;27.90;86.70;;;;;;4973807;28;20210;-67
2022/08/18 14:38:41;;;;;;;4.80;4.40;;;27.90;87.00;;;;;;4977250;28;20579;-67
2022/08/18 14:41:09;;;;;;;5.87;5.27;;;27.80;87.30;;;;;;4976654;28;20780;-67
2022/08/18 14:43:34;;;;;;;6.00;5.50;;;27.80;87.20;;;;;;4976804;28;20416;-66
2022/08/18 14:46:01;;;;;;;4.37;4.07;;;27.80;87.00;;;;;;4962795;28;20862;-66
2022/08/18 14:48:28;;;;;;;5.53;5.03;;;27.80;86.80;;;;;;4975672;28;20191;-67
2022/08/18 14:50:55;;;;;;;4.47;4.17;;;27.80;86.70;;;;;;4977372;28;20457;-67
2022/08/18 14:53:23;;;;;;;5.70;5.20;;;27.80;87.10;;;;;;4975268;28;20479;-68
2022/08/18 14:55:51;;;;;;;5.63;5.20;;;27.90;88.00;;;;;;4976213;28;20473;-66
2022/08/18 14:58:18;;;;;;;5.87;5.40;;;28.00;88.70;;;;;;4976601;28;20791;-67
2022/08/18 15:00:44;;;;;;;5.53;5.03;;;28.10;88.30;;;;;;4976864;28;20393;-67
2022/08/18 15:03:10;;;;;;;5.60;5.10;;;28.20;87.60;;;;;;4976094;28;20911;-67
2022/08/18 15:05:37;;;;;;;5.83;5.33;;;28.30;88.30;;;;;;4975945;28;20279;-65
2022/08/18 15:08:03;;;;;;;6.30;5.70;;;28.40;88.00;;;;;;4976569;28;20386;-66
2022/08/18 15:10:29;;;;;;;5.63;5.20;;;28.30;87.20;;;;;;4976696;28;20975;-66
2022/08/18 15:12:56;;;;;;;5.90;5.37;;;28.30;85.80;;;;;;4976219;28;20391;-67
2022/08/18 15:15:23;;;;;;;4.97;4.57;;;28.20;86.00;;;;;;4975912;28;20475;-71
2022/08/18 15:17:49;;;;;;;5.27;4.87;;;28.10;85.70;;;;;;4976252;28;20505;-74
2022/08/18 15:20:15;;;;;;;6.07;5.57;;;28.10;85.50;;;;;;4976336;28;20426;-75
2022/08/18 15:25:45;;;;;;;7.10;4.90;;;27.90;86.30;;;;;;4916307;29;20208;-73
2022/08/18 15:28:20;;;;;;;5.67;5.20;;;27.80;86.70;;;;;;4949176;28;20401;-73
2022/08/18 15:30:49;;;;;;;5.83;5.33;;;27.70;86.90;;;;;;4958275;28;20433;-74
2022/08/18 15:33:15;;;;;;;6.33;5.73;;;27.70;87.00;;;;;;4975496;28;20430;-73
2022/08/18 15:35:43;;;;;;;5.80;5.30;;;27.60;87.60;;;;;;4975733;28;20462;-75
2022/08/18 15:38:13;;;;;;;5.37;4.97;;;27.60;87.90;;;;;;4975827;28;20375;-70
2022/08/18 15:40:48;;;;;;;5.17;4.73;;;27.50;88.00;;;;;;4976051;28;20383;-69
2022/08/18 15:43:16;;;;;;;5.30;4.90;;;27.40;88.00;;;;;;4971117;28;20402;-69
2022/08/18 15:45:46;;;;;;;5.77;5.17;;;27.30;88.10;;;;;;4975613;28;20820;-68
2022/08/18 15:48:14;;;;;;;8.90;8.10;;;27.20;88.20;;;;;;4975071;28;20405;-69
2022/08/18 15:50:41;;;;;;;7.90;7.03;;;27.30;88.70;;;;;;4975264;28;20428;-69
2022/08/18 15:53:07;;;;;;;5.90;5.40;;;27.30;88.80;;;;;;4974592;28;20452;-71
2022/08/18 15:55:34;;;;;;;5.67;5.17;;;27.20;88.90;;;;;;4974206;28;20850;-67
2022/08/18 15:58:00;;;;;;;4.83;4.43;;;27.20;89.10;;;;;;4961388;28;20478;-68
2022/08/18 16:00:29;;;;;;;5.63;5.10;;;27.20;89.10;;;;;;4975179;28;20512;-68
2022/08/18 16:03:07;;;;;;;5.57;5.00;;;27.10;89.20;;;;;;4975103;28;20508;-68
2022/08/18 16:05:37;;;;;;;5.60;5.07;;;27.10;89.50;;;;;;4973990;28;20443;-66
2022/08/18 16:08:04;;;;;;;6.10;5.50;;;27.10;89.60;;;;;;4975236;28;20428;-70
2022/08/18 16:10:32;;;;;;;5.83;5.33;;;27.00;89.80;;;;;;4975562;28;20503;-69
2022/08/18 16:12:58;;;;;;;5.70;5.30;;;26.90;89.40;;;;;;4975744;28;20487;-67
2022/08/18 16:15:24;;;;;;;5.87;5.40;;;26.90;90.00;;;;;;4975337;28;20482;-67
2022/08/18 16:17:53;;;;;;;5.47;5.07;;;26.90;90.20;;;;;;4974628;28;20402;-68
2022/08/18 16:20:22;;;;;;;5.50;5.10;;;27.00;90.10;;;;;;4976166;28;20467;-65
2022/08/18 16:22:48;;;;;;;5.57;5.07;;;26.90;89.80;;;;;;4971173;28;20431;-66
2022/08/18 16:25:15;;;;;;;5.30;4.90;;;26.90;90.00;;;;;;4975117;28;20438;-67
2022/08/18 16:27:41;;;;;;;4.90;4.50;;;26.80;90.20;;;;;;4973638;28;20427;-70
2022/08/18 16:30:09;;;;;;;5.23;4.83;;;26.80;90.20;;;;;;4956852;28;20537;-67
2022/08/18 16:32:34;;;;;;;4.60;4.20;;;26.80;90.20;;;;;;4973112;28;20439;-69
2022/08/18 16:35:00;;;;;;;4.67;4.27;;;26.80;90.30;;;;;;4974675;28;20467;-68
2022/08/18 16:37:26;;;;;;;7.60;5.80;;;26.70;90.40;;;;;;4974876;28;20173;-70
2022/08/18 16:39:53;;;;;;;5.93;5.33;;;26.70;90.40;;;;;;4974144;28;20177;-70
2022/08/18 16:42:19;;;;;;;5.03;4.50;;;26.70;90.50;;;;;;4974342;28;20403;-72
2022/08/18 16:44:45;;;;;;;7.27;6.67;;;26.70;90.40;;;;;;4974723;28;20514;-71
2022/08/18 16:47:16;;;;;;;5.70;5.20;;;26.70;90.40;;;;;;4974238;28;20430;-72
2022/08/18 16:49:44;;;;;;;5.70;5.20;;;26.60;90.20;;;;;;4989766;28;20434;-70
2022/08/18 16:52:12;;;;;;;5.63;5.23;;;26.60;90.40;;;;;;4992147;28;20415;-72
2022/08/18 16:54:38;;;;;;;5.50;5.07;;;26.60;90.30;;;;;;4974685;28;20846;-73
2022/08/18 16:57:03;;;;;;;4.90;4.50;;;26.60;90.10;;;;;;4973566;28;20413;-70
2022/08/18 17:05:01;;;;;;;5.20;4.80;;;26.50;90.30;;;;;;4974433;28;20465;-68
2022/08/18 17:07:30;;;;;;;5.23;4.80;;;26.50;90.30;;;;;;4974681;28;20412;-71
2022/08/18 17:09:56;;;;;;;4.53;4.13;;;26.40;90.20;;;;;;4974553;28;20439;-74
2022/08/18 17:12:24;;;;;;;4.67;4.23;;;26.30;90.20;;;;;;4974208;28;20818;-76
2022/08/18 17:14:49;;;;;;;5.10;4.70;;;26.30;90.20;;;;;;4973917;28;20414;-71
2022/08/18 17:17:18;;;;;;;6.10;5.60;;;26.20;90.70;;;;;;4974377;28;20426;-73
2022/08/18 17:19:45;;;;;;;5.77;5.27;;;26.10;91.50;;;;;;4974519;28;20200;-76
2022/08/18 17:22:13;;;;;;;12.00;10.73;;;26.00;92.10;;;;;;4974281;28;20908;-76
2022/08/18 17:24:39;;;;;;;5.97;5.47;;;25.90;92.80;;;;;;4974370;28;20436;-75
2022/08/18 17:27:19;;;;;;;6.00;5.50;;;25.80;93.40;;;;;;4974560;28;20462;-72
2022/08/18 17:30:10;;;;;;;6.80;5.90;;;25.70;93.70;;;;;;4973684;28;20432;-72
2022/08/18 17:33:00;;;;;;;6.17;5.67;;;25.60;94.00;;;;;;4974065;28;20390;-73
2022/08/18 17:35:34;;;;;;;6.27;5.53;;;25.50;94.60;;;;;;4966199;28;20482;-76
2022/08/18 17:38:07;;;;;;;6.87;5.57;;;25.40;94.90;;;;;;4954682;28;20435;-75
2022/08/18 17:40:43;;;;;;;8.47;7.30;;;25.30;95.30;;;;;;4970198;28;20452;-73
2022/08/18 17:43:13;;;;;;;5.80;5.20;;;25.30;95.60;;;;;;4973746;28;20390;-71
2022/08/18 17:45:39;;;;;;;6.57;5.97;;;25.20;95.80;;;;;;4973091;28;20507;-71
2022/08/18 17:48:14;;;;;;;6.80;6.20;;;25.20;96.10;;;;;;4973732;28;20400;-74
2022/08/18 17:53:35;;;;;;;7.40;6.70;;;25.10;96.60;;;;;;4973637;28;20546;-69